createdAt,value
2022-08-14T00:05:07.220Z,0.00
2022-08-14T00:10:52.868Z,0.00
2022-08-14T00:16:11.121Z,0.00
2022-08-14T00:21:45.300Z,0.00
2022-08-14T00:27:17.121Z,0.00
2022-08-14T00:38:21.338Z,0.00
2022-08-14T00:43:53.156Z,0.00
2022-08-14T00:49:24.685Z,0.00
2022-08-14T00:54:57.753Z,0.00
2022-08-14T01:00:37.099Z,0.00
2022-08-14T01:11:35.337Z,0.00
2022-08-14T01:17:04.704Z,0.00
2022-08-14T01:22:36.983Z,0.00
2022-08-14T01:28:08.414Z,0.00
2022-08-14T01:34:00.035Z,0.00
2022-08-14T01:39:12.508Z,0.00
2022-08-14T01:44:44.528Z,0.00
2022-08-14T01:50:15.953Z,0.00
2022-08-14T01:55:47.907Z,0.00
2022-08-14T02:01:20.021Z,0.00
2022-08-14T02:06:51.617Z,0.00
2022-08-14T02:12:26.473Z,0.00
2022-08-14T02:17:55.264Z,0.00
2022-08-14T02:23:32.061Z,0.00
2022-08-14T02:28:59.558Z,0.00
2022-08-14T02:34:31.161Z,0.00
2022-08-14T02:40:05.478Z,0.00
2022-08-14T02:45:38.747Z,0.00
2022-08-14T02:51:06.557Z,0.00
2022-08-14T02:57:15.477Z,0.00
2022-08-14T03:02:16.335Z,0.00
2022-08-14T03:07:41.600Z,0.00
2022-08-14T03:13:19.161Z,0.00
2022-08-14T03:18:45.256Z,0.00
2022-08-14T03:24:23.012Z,0.00
2022-08-14T03:29:49.698Z,0.00
2022-08-14T03:35:21.615Z,0.00
2022-08-14T03:40:53.325Z,0.00
2022-08-14T03:46:39.076Z,0.00
2022-08-14T03:51:58.171Z,0.00
2022-08-14T03:57:29.133Z,6.00
2022-08-14T04:03:01.050Z,16.00
2022-08-14T04:08:32.946Z,27.05
2022-08-14T04:14:04.578Z,28.40
2022-08-14T04:19:36.711Z,-60.90
2022-08-14T04:25:08.759Z,-84.35
2022-08-14T04:30:42.144Z,-94.35
2022-08-14T04:36:15.829Z,-88.80
2022-08-14T04:41:44.923Z,-77.15
2022-08-14T04:47:16.574Z,-47.25
2022-08-14T04:52:48.243Z,65.05
2022-08-14T04:58:21.746Z,76.50
2022-08-14T05:03:52.092Z,86.25
2022-08-14T05:09:24.035Z,93.85
2022-08-14T05:14:56.124Z,104.45
2022-08-14T05:21:04.408Z,115.35
2022-08-14T05:26:00.022Z,121.75
2022-08-14T05:31:39.739Z,75.60
2022-08-14T05:37:03.666Z,96.55
2022-08-14T05:42:35.504Z,118.95
2022-08-14T05:48:07.100Z,136.05
2022-08-14T05:53:42.293Z,158.70
2022-08-14T06:04:43.289Z,192.40
2022-08-14T06:10:15.635Z,218.25
2022-08-14T06:15:47.876Z,237.75
2022-08-14T06:21:20.039Z,263.95
2022-08-14T06:26:56.738Z,288.75
2022-08-14T06:32:37.419Z,313.15
2022-08-14T06:37:56.444Z,330.10
2022-08-14T06:43:31.779Z,343.85
2022-08-14T06:54:32.108Z,679.30
2022-08-14T07:00:03.798Z,1052.05
2022-08-14T07:05:35.903Z,816.00
2022-08-14T07:11:07.630Z,1143.35
2022-08-14T07:16:39.801Z,1336.60
2022-08-14T07:22:17.803Z,977.80
2022-08-14T07:27:43.499Z,1416.00
2022-08-14T07:33:15.525Z,1637.60
2022-08-14T07:38:52.235Z,1670.80
2022-08-14T07:44:29.283Z,2110.80
2022-08-14T07:49:50.634Z,1957.05
2022-08-14T07:55:22.753Z,2492.00
2022-08-14T08:00:56.456Z,2494.95
2022-08-14T08:06:26.128Z,2787.25
2022-08-14T08:11:57.768Z,2461.10
2022-08-14T08:17:34.686Z,2452.65
2022-08-14T08:23:06.319Z,2623.80
2022-08-14T08:28:32.986Z,2693.25
2022-08-14T08:34:04.937Z,2978.85
2022-08-14T08:45:12.007Z,2891.70
2022-08-14T08:52:59.713Z,3304.30
2022-08-14T08:58:31.362Z,3307.35
2022-08-14T09:04:03.076Z,3300.95
2022-08-14T09:09:34.829Z,3364.45
2022-08-14T09:15:11.403Z,3420.30
2022-08-14T09:20:37.848Z,491.25
2022-08-14T09:26:21.325Z,494.90
2022-08-14T09:37:13.788Z,484.80
2022-08-14T09:42:50.143Z,479.40
2022-08-14T09:48:17.042Z,470.95
2022-08-14T09:54:19.355Z,456.85
2022-08-14T09:59:20.422Z,449.10
2022-08-14T10:04:52.399Z,440.70
2022-08-14T10:10:24.190Z,443.25
2022-08-14T10:15:55.836Z,438.90
2022-08-14T10:21:27.741Z,428.50
2022-08-14T10:27:00.960Z,425.40
2022-08-14T10:32:40.037Z,418.30
2022-08-14T10:38:03.313Z,417.95
2022-08-14T10:43:34.994Z,410.85
2022-08-14T10:49:06.728Z,409.70
2022-08-14T10:54:40.210Z,398.60
2022-08-14T11:00:09.830Z,394.55
2022-08-14T11:05:41.774Z,391.20
2022-08-14T11:11:13.709Z,385.10
2022-08-14T11:16:53.241Z,377.10
2022-08-14T11:22:52.944Z,375.00
2022-08-14T11:27:49.080Z,370.90
2022-08-14T11:33:20.640Z,360.10
2022-08-14T11:38:53.879Z,359.75
2022-08-14T11:44:46.672Z,357.70
2022-08-14T11:49:56.000Z,347.95
2022-08-14T11:55:27.864Z,343.85
2022-08-14T12:00:59.622Z,339.85
2022-08-14T12:06:38.513Z,339.80
2022-08-14T12:12:03.032Z,334.00
2022-08-14T12:17:38.238Z,328.70
2022-08-14T12:23:06.696Z,326.90
2022-08-14T12:28:59.692Z,320.15
2022-08-14T12:34:10.505Z,313.85
2022-08-14T12:39:42.179Z,312.80
2022-08-14T12:45:17.256Z,308.75
2022-08-14T12:50:49.684Z,305.40
2022-08-14T12:56:22.732Z,299.95
2022-08-14T13:02:03.110Z,298.60
2022-08-14T13:07:21.037Z,295.30
2022-08-14T13:13:12.656Z,287.30
2022-08-14T13:18:24.927Z,287.00
2022-08-14T13:23:56.582Z,282.25
2022-08-14T13:29:28.396Z,276.85
2022-08-14T13:35:00.319Z,273.50
2022-08-14T13:40:32.882Z,275.00
2022-08-14T13:46:03.846Z,270.70
2022-08-14T13:51:35.377Z,267.35
2022-08-14T13:57:06.986Z,260.75
2022-08-14T14:02:38.700Z,264.25
2022-08-14T14:08:18.366Z,260.55
2022-08-14T14:19:14.085Z,255.95
2022-08-14T14:24:45.904Z,250.95
2022-08-14T14:30:51.989Z,250.30
2022-08-14T14:35:49.322Z,243.90
2022-08-14T14:43:41.768Z,244.55
2022-08-14T14:49:13.835Z,238.55
2022-08-14T14:54:45.456Z,233.30
2022-08-14T15:00:19.378Z,233.95
2022-08-14T15:05:49.229Z,227.95
2022-08-14T15:11:20.814Z,224.90
2022-08-14T15:16:52.645Z,225.55
2022-08-14T15:22:25.238Z,219.25
2022-08-14T15:27:56.203Z,211.80
2022-08-14T15:33:29.449Z,210.45
2022-08-14T15:39:00.897Z,206.30
2022-08-14T15:44:36.525Z,200.15
2022-08-14T15:50:04.446Z,194.10
2022-08-14T15:55:36.308Z,188.20
2022-08-14T16:01:08.012Z,186.85
2022-08-14T16:06:39.867Z,175.70
2022-08-14T16:12:11.760Z,169.80
2022-08-14T16:23:15.470Z,160.60
2022-08-14T16:28:47.033Z,155.00
2022-08-14T16:31:11.156Z,148.10
2022-08-14T16:36:50.721Z,143.65
2022-08-14T16:42:38.961Z,142.15
2022-08-14T16:47:47.757Z,133.85
2022-08-14T16:53:18.167Z,126.65
2022-08-14T16:58:50.132Z,119.40
2022-08-14T17:04:25.213Z,110.90
2022-08-14T17:09:54.699Z,104.70
2022-08-14T17:15:25.431Z,99.70
2022-08-14T18:11:47.327Z,38.30
2022-08-14T18:17:19.020Z,31.15
2022-08-14T18:22:50.397Z,26.00
2022-08-14T18:28:51.788Z,15.00
2022-08-14T18:33:54.215Z,6.00
2022-08-14T18:39:26.117Z,1.00
2022-08-14T18:44:57.798Z,0.00
2022-08-14T18:50:30.921Z,0.00
2022-08-14T18:56:09.736Z,0.00
2022-08-14T19:01:33.343Z,0.00
2022-08-14T19:07:04.983Z,0.00
2022-08-14T19:12:41.124Z,0.00
2022-08-14T19:18:13.882Z,0.00
2022-08-14T19:23:43.308Z,0.00
2022-08-14T19:29:10.909Z,0.00
2022-08-14T19:34:52.350Z,0.00
2022-08-14T19:40:19.306Z,0.00
2022-08-14T19:45:45.349Z,0.00
2022-08-14T19:51:17.154Z,0.00
2022-08-14T19:56:48.408Z,0.00
2022-08-14T20:04:46.353Z,0.00
2022-08-14T20:11:06.964Z,0.00
2022-08-14T20:15:47.152Z,0.00
2022-08-14T20:21:15.389Z,0.00
2022-08-14T20:26:47.405Z,0.00
2022-08-14T20:32:18.949Z,0.00
2022-08-14T20:34:51.221Z,0.00
2022-08-14T20:40:23.419Z,0.00
2022-08-14T20:45:45.501Z,0.00
2022-08-14T20:51:17.135Z,0.00
2022-08-14T20:56:48.928Z,0.00
2022-08-14T21:02:28.874Z,0.00
2022-08-14T21:07:53.290Z,0.00
2022-08-14T21:13:55.875Z,0.00
2022-08-14T21:18:55.397Z,0.00
2022-08-14T21:24:46.857Z,0.00
2022-08-14T21:29:59.373Z,0.00
2022-08-14T21:35:31.500Z,0.00
2022-08-14T21:41:03.050Z,0.00
2022-08-14T21:46:34.920Z,0.00
2022-08-14T21:52:48.855Z,0.00
2022-08-14T21:58:46.214Z,0.00
2022-08-14T22:03:10.230Z,0.00
2022-08-14T22:08:45.833Z,0.00
2022-08-14T22:14:25.150Z,0.00
2022-08-14T22:19:55.048Z,0.00
2022-08-14T22:25:17.438Z,0.00
2022-08-14T22:30:54.656Z,0.00
2022-08-14T22:36:25.223Z,0.00
2022-08-14T22:41:55.955Z,0.00
2022-08-14T22:47:24.972Z,0.00
2022-08-14T22:52:56.128Z,0.00
2022-08-14T22:58:30.131Z,0.00
2022-08-14T23:03:59.917Z,0.00
2022-08-14T23:09:35.317Z,0.00
2022-08-14T23:15:03.866Z,0.00
2022-08-14T23:22:55.151Z,0.00
2022-08-14T23:28:33.308Z,0.00
2022-08-14T23:33:58.511Z,0.00
2022-08-14T23:39:30.874Z,0.00
2022-08-14T23:45:02.133Z,0.00
2022-08-14T23:50:38.154Z,0.00
2022-08-14T23:56:05.918Z,0.00
